createdAt,value
2022-09-21T00:03:37.751Z,15.91
2022-09-21T00:08:41.407Z,14.87
2022-09-21T00:13:46.969Z,14.18
2022-09-21T00:18:50.141Z,13.64
2022-09-21T00:23:54.441Z,13.22
2022-09-21T00:28:59.575Z,14.01
2022-09-21T00:34:03.827Z,16.59
2022-09-21T00:39:07.166Z,17.10
2022-09-21T00:44:18.853Z,15.53
2022-09-21T00:49:22.620Z,14.46
2022-09-21T00:54:34.346Z,13.80
2022-09-21T00:59:39.755Z,13.28
2022-09-21T01:04:43.428Z,14.04
2022-09-21T01:09:50.151Z,17.00
2022-09-21T01:15:18.520Z,17.48
2022-09-21T01:20:42.852Z,15.63
2022-09-21T01:26:06.841Z,14.51
2022-09-21T01:31:20.933Z,13.78
2022-09-21T01:36:28.586Z,13.24
2022-09-21T01:41:32.954Z,12.81
2022-09-21T01:46:38.314Z,13.85
2022-09-21T01:51:48.518Z,16.88
2022-09-21T01:57:06.871Z,16.60
2022-09-21T02:02:15.988Z,14.97
2022-09-21T02:07:19.610Z,14.07
2022-09-21T02:12:23.148Z,13.46
2022-09-21T02:17:53.203Z,12.98
2022-09-21T02:22:55.939Z,14.26
2022-09-21T02:28:09.280Z,17.27
2022-09-21T02:33:19.941Z,16.88
2022-09-21T02:38:33.634Z,15.31
2022-09-21T02:43:46.948Z,14.37
2022-09-21T02:48:56.910Z,13.72
2022-09-21T02:54:04.711Z,13.20
2022-09-21T02:59:08.333Z,14.20
2022-09-21T03:04:11.399Z,16.89
2022-09-21T03:09:14.353Z,17.22
2022-09-21T03:14:17.355Z,15.61
2022-09-21T03:19:20.283Z,14.60
2022-09-21T03:24:42.111Z,13.92
2022-09-21T03:29:46.033Z,13.33
2022-09-21T03:34:48.880Z,13.95
2022-09-21T03:39:52.074Z,16.56
2022-09-21T03:44:54.912Z,17.07
2022-09-21T03:49:57.691Z,15.48
2022-09-21T03:55:00.567Z,14.42
2022-09-21T04:00:07.880Z,13.73
2022-09-21T04:05:15.061Z,14.26
2022-09-21T04:10:21.446Z,16.75
2022-09-21T04:15:24.453Z,17.12
2022-09-21T04:20:28.393Z,15.46
2022-09-21T04:25:31.208Z,14.42
2022-09-21T04:30:37.726Z,13.74
2022-09-21T04:35:41.238Z,13.23
2022-09-21T04:40:44.044Z,14.16
2022-09-21T04:45:47.004Z,16.88
2022-09-21T04:50:51.100Z,17.41
2022-09-21T04:55:54.769Z,15.74
2022-09-21T05:00:57.852Z,14.67
2022-09-21T05:06:01.088Z,13.97
2022-09-21T05:11:05.652Z,13.45
2022-09-21T05:16:09.529Z,14.23
2022-09-21T05:21:14.004Z,16.90
2022-09-21T05:26:16.898Z,17.36
2022-09-21T05:31:32.925Z,15.78
2022-09-21T05:36:46.497Z,14.74
2022-09-21T05:41:49.764Z,14.06
2022-09-21T05:47:13.458Z,13.54
2022-09-21T05:52:40.315Z,14.44
2022-09-21T05:58:06.207Z,17.17
2022-09-21T06:03:32.431Z,17.30
2022-09-21T06:08:35.504Z,15.59
2022-09-21T06:13:38.532Z,14.60
2022-09-21T06:18:42.543Z,13.94
2022-09-21T06:23:49.405Z,14.56
2022-09-21T06:28:52.225Z,17.14
2022-09-21T06:33:55.181Z,17.38
2022-09-21T06:38:58.084Z,15.73
2022-09-21T06:44:01.456Z,14.70
2022-09-21T06:49:04.550Z,13.95
2022-09-21T06:54:08.193Z,14.59
2022-09-21T06:59:16.278Z,17.28
2022-09-21T07:04:24.999Z,17.74
2022-09-21T07:14:51.248Z,14.98
2022-09-21T07:19:54.043Z,14.35
2022-09-21T07:24:58.092Z,14.96
2022-09-21T07:30:00.956Z,17.51
2022-09-21T07:35:04.396Z,17.92
2022-09-21T07:40:08.141Z,16.23
2022-09-21T07:45:11.464Z,15.21
2022-09-21T07:50:14.782Z,14.52
2022-09-21T07:55:17.712Z,15.07
2022-09-21T08:00:21.290Z,17.65
2022-09-21T08:05:24.524Z,17.92
2022-09-21T08:10:28.818Z,16.37
2022-09-21T08:15:48.677Z,15.47
2022-09-21T08:20:56.222Z,14.84
2022-09-21T08:26:05.686Z,15.47
2022-09-21T08:31:10.150Z,18.10
2022-09-21T08:36:13.234Z,18.57
2022-09-21T08:41:46.412Z,16.99
2022-09-21T08:47:03.752Z,15.86
2022-09-21T08:52:16.180Z,15.12
2022-09-21T08:57:22.198Z,15.69
2022-09-21T09:02:46.075Z,18.08
2022-09-21T09:08:18.167Z,18.33
2022-09-21T09:13:42.747Z,16.58
2022-09-21T09:18:53.035Z,15.63
2022-09-21T09:24:05.645Z,15.08
2022-09-21T09:29:25.144Z,15.80
2022-09-21T09:34:39.051Z,18.41
2022-09-21T09:39:45.624Z,17.94
2022-09-21T09:45:13.475Z,16.42
2022-09-21T09:50:32.038Z,15.55
2022-09-21T09:55:49.061Z,14.97
2022-09-21T10:00:54.368Z,14.57
2022-09-21T10:06:00.309Z,15.41
2022-09-21T10:11:04.280Z,18.01
2022-09-21T10:16:10.171Z,17.61
2022-09-21T10:21:21.554Z,16.23
2022-09-21T10:26:24.621Z,15.40
2022-09-21T10:31:30.099Z,14.83
2022-09-21T10:36:36.349Z,15.48
2022-09-21T10:41:39.192Z,18.00
2022-09-21T10:46:42.232Z,18.01
2022-09-21T10:51:47.223Z,16.60
2022-09-21T10:56:53.666Z,15.77
2022-09-21T11:02:00.419Z,15.23
2022-09-21T11:07:39.248Z,14.85
2022-09-21T11:13:18.976Z,15.90
2022-09-21T11:18:34.485Z,18.46
2022-09-21T11:24:05.328Z,17.87
2022-09-21T11:29:47.488Z,16.51
2022-09-21T11:34:56.186Z,15.85
2022-09-21T11:40:25.582Z,15.52
2022-09-21T11:45:34.374Z,16.40
2022-09-21T11:56:13.041Z,18.97
2022-09-21T12:01:36.340Z,17.81
2022-09-21T12:07:13.136Z,17.48
2022-09-21T12:12:25.896Z,17.08
2022-09-21T12:18:07.650Z,16.68
2022-09-21T12:23:19.493Z,16.44
2022-09-21T12:28:32.136Z,16.18
2022-09-21T12:33:48.418Z,15.87
2022-09-21T12:38:58.546Z,15.58
2022-09-21T12:44:33.875Z,15.39
2022-09-21T12:49:46.564Z,15.24
2022-09-21T12:55:21.920Z,16.26
2022-09-21T13:00:30.954Z,19.29
2022-09-21T13:05:43.631Z,18.82
2022-09-21T13:10:54.755Z,17.74
2022-09-21T13:15:59.743Z,17.11
2022-09-21T13:21:17.068Z,16.64
2022-09-21T13:26:38.186Z,16.26
2022-09-21T13:31:54.458Z,15.93
2022-09-21T13:37:16.060Z,15.67
2022-09-21T13:42:31.137Z,15.47
2022-09-21T13:47:38.641Z,15.28
2022-09-21T13:52:48.198Z,15.14
2022-09-21T13:57:55.823Z,15.06
2022-09-21T14:03:04.632Z,14.98
2022-09-21T14:08:22.278Z,14.94
2022-09-21T14:13:36.285Z,14.98
2022-09-21T14:18:39.291Z,15.05
2022-09-21T14:24:02.319Z,15.11
2022-09-21T14:29:19.649Z,15.13
2022-09-21T14:34:26.564Z,15.07
2022-09-21T14:39:33.762Z,14.98
2022-09-21T14:44:39.435Z,14.91
2022-09-21T14:49:54.669Z,14.87
2022-09-21T14:55:15.938Z,14.87
2022-09-21T15:00:26.637Z,14.88
2022-09-21T15:05:43.464Z,14.93
2022-09-21T15:11:13.766Z,14.97
2022-09-21T15:16:22.624Z,15.01
2022-09-21T15:21:30.403Z,15.04
2022-09-21T15:26:34.568Z,16.12
2022-09-21T15:31:40.905Z,18.62
2022-09-21T15:36:44.957Z,17.84
2022-09-21T15:41:50.728Z,16.92
2022-09-21T15:47:01.176Z,16.40
2022-09-21T15:52:29.475Z,16.00
2022-09-21T15:57:40.633Z,15.67
2022-09-21T16:02:55.965Z,15.42
2022-09-21T16:08:35.600Z,15.15
2022-09-21T16:13:56.917Z,14.91
2022-09-21T16:19:00.325Z,14.69
2022-09-21T16:24:18.998Z,14.49
2022-09-21T16:29:26.529Z,14.29
2022-09-21T16:34:35.344Z,14.10
2022-09-21T16:39:38.272Z,15.04
2022-09-21T16:44:44.918Z,17.80
2022-09-21T16:49:47.987Z,17.91
2022-09-21T16:54:51.773Z,16.60
2022-09-21T16:59:54.795Z,15.84
2022-09-21T17:04:59.441Z,15.32
2022-09-21T17:10:14.922Z,14.87
2022-09-21T17:15:17.939Z,14.48
2022-09-21T17:20:33.389Z,14.16
2022-09-21T17:25:37.238Z,15.01
2022-09-21T17:30:42.658Z,17.61
2022-09-21T17:35:45.992Z,18.20
2022-09-21T17:40:49.186Z,16.78
2022-09-21T17:46:08.548Z,15.88
2022-09-21T17:51:12.269Z,15.25
2022-09-21T17:56:45.585Z,14.76
2022-09-21T18:01:48.792Z,14.31
2022-09-21T18:06:51.945Z,13.95
2022-09-21T18:12:04.230Z,14.77
2022-09-21T18:17:24.387Z,17.52
2022-09-21T18:23:14.377Z,18.09
2022-09-21T18:28:27.458Z,16.41
2022-09-21T18:34:13.220Z,15.56
2022-09-21T18:39:26.364Z,14.90
2022-09-21T18:44:39.637Z,14.43
2022-09-21T18:50:00.454Z,15.16
2022-09-21T18:55:26.881Z,17.84
2022-09-21T19:00:35.487Z,18.24
2022-09-21T19:05:46.366Z,16.69
2022-09-21T19:10:57.430Z,15.73
2022-09-21T19:16:45.928Z,15.08
2022-09-21T19:22:00.846Z,14.50
2022-09-21T19:27:39.249Z,15.30
2022-09-21T19:32:46.501Z,18.02
2022-09-21T19:37:52.279Z,18.31
2022-09-21T19:43:22.722Z,16.72
2022-09-21T19:48:27.914Z,15.65
2022-09-21T19:53:50.960Z,14.96
2022-09-21T19:59:12.843Z,14.41
2022-09-21T20:04:15.889Z,15.16
2022-09-21T20:09:26.227Z,17.63
2022-09-21T20:14:38.136Z,18.08
2022-09-21T20:19:51.635Z,16.56
2022-09-21T20:25:10.553Z,15.61
2022-09-21T20:30:16.788Z,14.93
2022-09-21T20:35:23.270Z,14.42
2022-09-21T20:40:29.021Z,15.13
2022-09-21T20:45:33.252Z,17.76
2022-09-21T20:50:37.498Z,18.00
2022-09-21T20:55:41.387Z,16.47
2022-09-21T21:00:46.249Z,15.51
2022-09-21T21:05:49.144Z,14.85
2022-09-21T21:10:55.788Z,14.34
2022-09-21T21:16:00.336Z,15.00
2022-09-21T21:21:04.772Z,17.64
2022-09-21T21:26:08.085Z,18.01
2022-09-21T21:31:12.061Z,16.42
2022-09-21T21:36:15.206Z,15.42
2022-09-21T21:41:18.455Z,14.75
2022-09-21T21:46:21.392Z,14.23
2022-09-21T21:51:24.323Z,14.93
2022-09-21T21:56:27.904Z,17.55
2022-09-21T22:01:31.351Z,17.54
2022-09-21T22:06:36.553Z,15.98
2022-09-21T22:11:39.476Z,15.04
2022-09-21T22:16:42.443Z,14.41
2022-09-21T22:21:51.735Z,13.95
2022-09-21T22:26:57.038Z,14.71
2022-09-21T22:32:00.745Z,17.25
2022-09-21T22:37:03.796Z,17.81
2022-09-21T22:42:06.731Z,16.28
2022-09-21T22:47:09.598Z,15.30
2022-09-21T22:52:12.918Z,14.63
2022-09-21T22:57:15.778Z,14.12
2022-09-21T23:02:18.706Z,14.74
2022-09-21T23:07:21.556Z,17.22
2022-09-21T23:12:24.390Z,17.60
2022-09-21T23:17:29.094Z,16.06
2022-09-21T23:22:32.016Z,15.05
2022-09-21T23:27:34.876Z,14.41
2022-09-21T23:32:37.841Z,13.93
2022-09-21T23:37:40.763Z,14.61
2022-09-21T23:42:43.662Z,17.07
2022-09-21T23:47:46.510Z,17.56
2022-09-21T23:52:49.415Z,16.08
2022-09-21T23:57:52.249Z,15.10
